createdAt,value
2023-05-13T00:01:09.021Z,2.90
2023-05-13T00:03:35.622Z,2.80
2023-05-13T00:06:02.236Z,2.47
2023-05-13T00:08:28.730Z,3.03
2023-05-13T00:10:55.193Z,2.88
2023-05-13T00:13:21.739Z,2.90
2023-05-13T00:15:48.270Z,2.67
2023-05-13T00:18:14.730Z,2.88
2023-05-13T00:20:41.511Z,2.42
2023-05-13T00:23:08.594Z,2.53
2023-05-13T00:25:35.142Z,2.67
2023-05-13T00:28:01.592Z,2.40
2023-05-13T00:30:28.123Z,3.10
2023-05-13T00:32:54.596Z,2.63
2023-05-13T00:35:21.177Z,2.78
2023-05-13T00:37:47.713Z,3.03
2023-05-13T00:40:21.948Z,3.30
2023-05-13T00:42:49.070Z,2.55
2023-05-13T00:45:15.857Z,2.90
2023-05-13T00:47:42.497Z,3.40
2023-05-13T00:50:10.069Z,3.08
2023-05-13T00:52:39.771Z,3.00
2023-05-13T00:55:07.505Z,3.97
2023-05-13T00:57:34.808Z,3.30
2023-05-13T01:00:01.366Z,3.83
2023-05-13T01:02:34.808Z,3.45
2023-05-13T01:05:20.268Z,3.47
2023-05-13T01:08:10.463Z,3.25
2023-05-13T01:10:47.452Z,3.47
2023-05-13T01:13:15.029Z,3.63
2023-05-13T01:15:48.439Z,3.42
2023-05-13T01:18:44.406Z,3.55
2023-05-13T01:21:11.567Z,3.55
2023-05-13T01:23:38.115Z,3.47
2023-05-13T01:26:04.827Z,3.38
2023-05-13T01:28:31.255Z,3.60
2023-05-13T01:30:57.787Z,3.50
2023-05-13T01:33:24.360Z,4.53
2023-05-13T01:35:51.505Z,4.22
2023-05-13T01:38:18.654Z,3.72
2023-05-13T01:40:46.274Z,3.50
2023-05-13T01:43:12.820Z,3.35
2023-05-13T01:45:39.327Z,4.07
2023-05-13T01:48:06.317Z,3.72
2023-05-13T01:50:32.777Z,3.92
2023-05-13T01:52:59.283Z,3.65
2023-05-13T01:55:25.810Z,3.67
2023-05-13T01:57:52.337Z,3.85
2023-05-13T02:00:19.008Z,3.90
2023-05-13T02:02:47.131Z,4.30
2023-05-13T02:05:13.773Z,3.83
2023-05-13T02:07:40.338Z,3.92
2023-05-13T02:10:07.197Z,4.00
2023-05-13T02:12:33.682Z,4.10
2023-05-13T02:15:00.263Z,4.22
2023-05-13T02:17:27.088Z,4.00
2023-05-13T02:19:53.580Z,4.03
2023-05-13T02:22:20.025Z,3.97
2023-05-13T02:24:46.519Z,4.85
2023-05-13T02:27:16.102Z,4.45
2023-05-13T02:29:42.616Z,4.25
2023-05-13T02:32:09.182Z,4.55
2023-05-13T02:34:35.803Z,4.55
2023-05-13T02:37:03.475Z,4.63
2023-05-13T02:39:29.960Z,4.40
2023-05-13T02:41:56.426Z,4.80
2023-05-13T02:44:22.871Z,4.60
2023-05-13T02:46:49.333Z,4.30
2023-05-13T02:49:15.876Z,4.30
2023-05-13T02:51:42.369Z,4.60
2023-05-13T02:54:09.001Z,4.57
2023-05-13T02:56:35.453Z,4.20
2023-05-13T02:59:01.946Z,4.35
2023-05-13T03:01:28.638Z,4.55
2023-05-13T03:03:55.220Z,4.40
2023-05-13T03:06:21.704Z,4.53
2023-05-13T03:08:48.156Z,4.43
2023-05-13T03:11:14.668Z,4.25
2023-05-13T03:13:41.190Z,3.97
2023-05-13T03:16:07.738Z,4.55
2023-05-13T03:18:35.297Z,4.60
2023-05-13T03:21:01.964Z,4.20
2023-05-13T03:23:28.537Z,4.25
2023-05-13T03:25:55.012Z,4.07
2023-05-13T03:28:21.509Z,4.93
2023-05-13T03:30:48.114Z,4.38
2023-05-13T03:33:14.637Z,4.57
2023-05-13T03:35:41.102Z,4.18
2023-05-13T03:38:07.646Z,4.68
2023-05-13T03:40:34.344Z,4.50
2023-05-13T03:43:00.793Z,4.50
2023-05-13T03:45:27.310Z,4.50
2023-05-13T03:47:53.801Z,4.10
2023-05-13T03:50:20.607Z,5.00
2023-05-13T03:52:47.411Z,4.35
2023-05-13T03:55:14.971Z,5.00
2023-05-13T03:57:47.488Z,4.90
2023-05-13T04:00:14.595Z,4.70
2023-05-13T04:02:41.287Z,4.60
2023-05-13T04:05:09.448Z,4.45
2023-05-13T04:07:36.044Z,4.32
2023-05-13T04:10:02.612Z,4.63
2023-05-13T04:12:30.853Z,4.45
2023-05-13T04:14:57.395Z,4.85
2023-05-13T04:17:23.926Z,4.53
2023-05-13T04:19:53.648Z,5.10
2023-05-13T04:22:20.642Z,4.40
2023-05-13T04:24:47.091Z,4.55
2023-05-13T04:27:13.565Z,4.70
2023-05-13T04:29:40.146Z,5.18
2023-05-13T04:32:06.830Z,4.65
2023-05-13T04:34:33.585Z,4.53
2023-05-13T04:37:00.029Z,5.00
2023-05-13T04:39:26.483Z,4.80
2023-05-13T04:41:52.947Z,4.78
2023-05-13T04:44:19.385Z,5.10
2023-05-13T04:46:46.038Z,5.03
2023-05-13T04:49:12.583Z,4.70
2023-05-13T04:51:39.176Z,4.32
2023-05-13T04:54:06.521Z,5.07
2023-05-13T04:56:33.020Z,5.10
2023-05-13T04:58:59.513Z,5.65
2023-05-13T05:01:26.039Z,5.30
2023-05-13T05:03:52.929Z,5.15
2023-05-13T05:06:19.669Z,5.18
2023-05-13T05:08:46.133Z,4.85
2023-05-13T05:11:12.797Z,4.78
2023-05-13T05:13:39.292Z,4.93
2023-05-13T05:16:05.884Z,4.90
2023-05-13T05:18:32.474Z,4.53
2023-05-13T05:21:00.494Z,5.28
2023-05-13T05:23:28.817Z,5.07
2023-05-13T05:26:07.925Z,6.40
2023-05-13T05:28:39.863Z,5.18
2023-05-13T05:31:06.652Z,4.63
2023-05-13T05:33:33.213Z,4.85
2023-05-13T05:35:59.674Z,4.80
2023-05-13T05:38:26.212Z,4.90
2023-05-13T05:40:52.698Z,5.18
2023-05-13T05:43:19.462Z,4.57
2023-05-13T05:45:45.983Z,4.47
2023-05-13T05:48:12.622Z,5.07
2023-05-13T05:50:39.094Z,4.85
2023-05-13T05:53:07.001Z,5.63
2023-05-13T05:55:33.448Z,4.55
2023-05-13T05:58:05.208Z,4.57
2023-05-13T06:00:32.402Z,4.53
2023-05-13T06:02:59.002Z,4.95
2023-05-13T06:05:25.716Z,4.47
2023-05-13T06:07:52.351Z,4.95
2023-05-13T06:10:19.336Z,5.18
2023-05-13T06:12:46.165Z,5.03
2023-05-13T06:15:12.729Z,4.68
2023-05-13T06:17:39.271Z,4.28
2023-05-13T06:20:06.356Z,4.03
2023-05-13T06:22:33.057Z,5.00
2023-05-13T06:24:59.533Z,4.57
2023-05-13T06:27:25.991Z,4.80
2023-05-13T06:29:52.722Z,4.40
2023-05-13T06:32:19.191Z,4.18
2023-05-13T06:34:46.373Z,4.15
2023-05-13T06:37:13.665Z,4.18
2023-05-13T06:39:40.396Z,3.85
2023-05-13T06:42:07.028Z,5.72
2023-05-13T06:44:33.794Z,4.07
2023-05-13T06:47:02.806Z,3.83
2023-05-13T06:49:29.330Z,4.30
2023-05-13T06:51:55.827Z,4.53
2023-05-13T06:54:22.351Z,4.05
2023-05-13T06:56:48.816Z,3.22
2023-05-13T06:59:16.426Z,3.55
2023-05-13T07:01:42.902Z,3.50
2023-05-13T07:04:09.621Z,3.10
2023-05-13T07:06:36.207Z,3.40
2023-05-13T07:09:07.984Z,3.25
2023-05-13T07:11:35.537Z,3.08
2023-05-13T07:14:02.038Z,3.13
2023-05-13T07:16:28.513Z,3.40
2023-05-13T07:18:55.098Z,3.17
2023-05-13T07:21:21.821Z,3.03
2023-05-13T07:23:48.278Z,9.80
2023-05-13T07:26:14.745Z,2.70
2023-05-13T07:28:41.250Z,3.05
2023-05-13T07:31:07.839Z,3.17
2023-05-13T07:33:34.333Z,2.70
2023-05-13T07:36:00.793Z,2.65
2023-05-13T07:38:27.286Z,2.50
2023-05-13T07:40:53.780Z,2.88
2023-05-13T07:43:23.780Z,2.38
2023-05-13T07:45:51.280Z,3.10
2023-05-13T07:48:18.339Z,3.17
2023-05-13T07:50:45.576Z,3.00
2023-05-13T07:53:12.209Z,2.45
2023-05-13T07:55:38.826Z,3.10
2023-05-13T07:58:06.420Z,2.92
2023-05-13T08:00:32.918Z,2.90
2023-05-13T08:02:59.533Z,2.38
2023-05-13T08:05:26.113Z,2.17
2023-05-13T08:07:52.591Z,2.00
2023-05-13T08:10:19.105Z,2.30
2023-05-13T08:12:50.870Z,2.38
2023-05-13T08:15:17.401Z,2.37
2023-05-13T08:17:43.927Z,2.33
2023-05-13T08:20:11.469Z,2.40
2023-05-13T08:22:37.967Z,4.97
2023-05-13T08:25:05.552Z,2.00
2023-05-13T08:27:32.090Z,2.17
2023-05-13T08:29:58.593Z,2.15
2023-05-13T08:32:25.188Z,1.80
2023-05-13T08:34:51.757Z,1.80
2023-05-13T08:37:18.321Z,2.13
2023-05-13T08:39:44.939Z,1.80
2023-05-13T08:42:11.507Z,1.83
2023-05-13T08:44:39.697Z,2.10
2023-05-13T08:47:14.902Z,2.10
2023-05-13T08:49:41.493Z,1.67
2023-05-13T08:52:08.865Z,2.78
2023-05-13T08:54:36.282Z,2.28
2023-05-13T08:57:03.357Z,2.45
2023-05-13T08:59:29.936Z,1.88
2023-05-13T09:01:56.515Z,1.67
2023-05-13T09:04:22.969Z,1.98
2023-05-13T09:06:49.529Z,2.40
2023-05-13T09:09:16.208Z,3.90
2023-05-13T09:11:44.616Z,2.42
2023-05-13T09:14:12.707Z,2.97
2023-05-13T09:16:39.346Z,6.20
2023-05-13T09:19:06.640Z,2.47
2023-05-13T09:21:35.978Z,1.75
2023-05-13T09:24:13.267Z,2.10
2023-05-13T09:26:40.794Z,3.90
2023-05-13T09:29:23.322Z,1.83
2023-05-13T09:31:54.641Z,1.60
2023-05-13T09:34:39.666Z,1.80
2023-05-13T09:37:07.696Z,1.23
2023-05-13T09:39:41.455Z,1.40
2023-05-13T09:42:20.235Z,1.30
2023-05-13T09:44:46.816Z,1.50
2023-05-13T09:47:16.900Z,1.40
2023-05-13T09:49:46.056Z,1.40
2023-05-13T09:52:13.440Z,1.50
2023-05-13T09:54:39.893Z,1.40
2023-05-13T09:57:06.502Z,1.63
2023-05-13T09:59:34.026Z,1.42
2023-05-13T10:02:08.692Z,1.33
2023-05-13T10:04:35.285Z,1.15
2023-05-13T10:07:03.792Z,1.98
2023-05-13T10:09:32.052Z,3.20
2023-05-13T10:11:58.552Z,2.50
2023-05-13T10:14:25.013Z,1.50
2023-05-13T10:16:51.541Z,1.40
2023-05-13T10:19:18.693Z,1.50
2023-05-13T10:21:45.239Z,1.45
2023-05-13T10:24:11.727Z,1.38
2023-05-13T10:26:38.282Z,1.65
2023-05-13T10:29:04.753Z,1.38
2023-05-13T10:31:31.290Z,1.10
2023-05-13T10:33:57.818Z,1.40
2023-05-13T10:36:43.036Z,2.65
2023-05-13T10:39:15.382Z,48.38
2023-05-13T10:41:50.714Z,2.38
2023-05-13T10:44:19.236Z,1.48
2023-05-13T10:46:48.183Z,1.30
2023-05-13T10:49:16.129Z,1.17
2023-05-13T10:51:47.327Z,1.33
2023-05-13T10:54:21.060Z,1.00
2023-05-13T10:56:57.102Z,1.20
2023-05-13T10:59:23.605Z,1.05
2023-05-13T11:01:50.117Z,1.25
2023-05-13T11:04:17.903Z,1.08
2023-05-13T11:06:46.318Z,1.60
2023-05-13T11:09:14.220Z,1.00
2023-05-13T11:11:40.897Z,1.30
2023-05-13T11:14:17.754Z,1.10
2023-05-13T11:17:02.533Z,1.17
2023-05-13T11:19:37.279Z,1.00
2023-05-13T11:22:10.663Z,1.10
2023-05-13T11:24:37.127Z,1.20
2023-05-13T11:27:17.433Z,0.93
2023-05-13T11:29:53.376Z,1.02
2023-05-13T11:32:51.509Z,0.98
2023-05-13T11:35:21.504Z,1.30
2023-05-13T11:37:49.253Z,1.02
2023-05-13T11:40:35.335Z,1.30
2023-05-13T11:43:02.012Z,1.20
2023-05-13T11:45:31.035Z,1.30
2023-05-13T11:47:57.899Z,1.20
2023-05-13T11:50:35.264Z,1.00
2023-05-13T11:53:01.842Z,1.13
2023-05-13T11:55:37.782Z,1.25
2023-05-13T11:58:04.326Z,1.05
2023-05-13T12:00:34.767Z,0.82
2023-05-13T12:03:09.053Z,1.30
2023-05-13T12:05:36.131Z,2.70
2023-05-13T12:08:02.788Z,1.05
2023-05-13T12:10:29.260Z,1.80
2023-05-13T12:12:55.771Z,1.10
2023-05-13T12:15:22.726Z,1.15
2023-05-13T12:17:49.671Z,0.98
2023-05-13T12:20:17.296Z,0.98
2023-05-13T12:22:43.665Z,0.95
2023-05-13T12:25:51.047Z,1.00
2023-05-13T12:28:19.305Z,1.25
2023-05-13T12:30:56.693Z,0.90
2023-05-13T12:33:26.669Z,0.98
2023-05-13T12:35:54.414Z,0.90
2023-05-13T12:38:24.010Z,0.80
2023-05-13T12:40:50.827Z,1.10
2023-05-13T12:43:18.759Z,0.80
2023-05-13T12:45:46.240Z,0.70
2023-05-13T12:48:13.526Z,0.90
2023-05-13T12:50:40.004Z,0.80
2023-05-13T12:53:06.561Z,0.80
2023-05-13T12:55:33.074Z,0.75
2023-05-13T12:58:00.847Z,0.77
2023-05-13T13:00:27.440Z,0.70
2023-05-13T13:02:54.279Z,0.70
2023-05-13T13:05:21.606Z,0.65
2023-05-13T13:07:48.346Z,0.70
2023-05-13T13:10:14.939Z,0.70
2023-05-13T13:12:41.632Z,0.70
2023-05-13T13:15:08.931Z,0.70
2023-05-13T13:17:35.542Z,0.70
2023-05-13T13:20:02.420Z,0.82
2023-05-13T13:22:28.994Z,0.80
2023-05-13T13:24:55.489Z,0.70
2023-05-13T13:27:21.981Z,0.65
2023-05-13T13:29:48.652Z,0.65
2023-05-13T13:32:15.261Z,1.02
2023-05-13T13:34:41.765Z,1.00
2023-05-13T13:37:08.315Z,0.80
2023-05-13T13:39:34.904Z,0.82
2023-05-13T13:42:04.561Z,0.90
2023-05-13T13:44:31.633Z,1.33
2023-05-13T13:46:58.804Z,0.80
2023-05-13T13:49:25.507Z,1.27
2023-05-13T13:51:53.055Z,0.70
2023-05-13T13:54:19.816Z,0.68
2023-05-13T13:56:46.320Z,0.77
2023-05-13T13:59:12.836Z,0.77
2023-05-13T14:01:40.320Z,0.70
2023-05-13T14:04:11.332Z,0.60
2023-05-13T14:06:37.959Z,1.00
2023-05-13T14:09:05.324Z,0.73
2023-05-13T14:11:32.216Z,0.77
2023-05-13T14:13:58.870Z,0.40
2023-05-13T14:16:25.482Z,0.70
2023-05-13T14:18:52.292Z,0.90
2023-05-13T14:21:18.958Z,0.60
2023-05-13T14:23:45.495Z,0.60
2023-05-13T14:26:14.844Z,0.63
2023-05-13T14:28:42.441Z,0.90
2023-05-13T14:31:09.178Z,0.70
2023-05-13T14:33:36.125Z,0.98
2023-05-13T14:36:02.699Z,1.30
2023-05-13T14:38:29.288Z,1.00
2023-05-13T14:40:56.029Z,0.60
2023-05-13T14:43:23.394Z,0.90
2023-05-13T14:45:49.890Z,1.00
2023-05-13T14:48:16.477Z,0.85
2023-05-13T14:50:45.051Z,1.30
2023-05-13T14:53:11.691Z,1.02
2023-05-13T14:55:38.284Z,1.10
2023-05-13T14:58:04.920Z,1.17
2023-05-13T15:00:31.916Z,1.20
2023-05-13T15:02:58.609Z,1.10
2023-05-13T15:05:26.559Z,1.13
2023-05-13T15:07:52.993Z,1.17
2023-05-13T15:10:19.672Z,1.40
2023-05-13T15:12:46.303Z,1.50
2023-05-13T15:15:12.777Z,1.80
2023-05-13T15:17:39.338Z,1.40
2023-05-13T15:20:06.608Z,1.30
2023-05-13T15:22:34.206Z,1.42
2023-05-13T15:25:00.941Z,1.30
2023-05-13T15:27:27.855Z,1.70
2023-05-13T15:29:54.592Z,1.30
2023-05-13T15:32:21.043Z,1.70
2023-05-13T15:34:47.608Z,1.40
2023-05-13T15:37:14.093Z,1.15
2023-05-13T15:39:40.928Z,1.63
2023-05-13T15:42:07.621Z,1.55
2023-05-13T15:44:34.115Z,1.42
2023-05-13T15:47:00.789Z,1.67
2023-05-13T15:49:27.487Z,2.08
2023-05-13T15:51:55.992Z,1.77
2023-05-13T15:54:23.801Z,1.73
2023-05-13T15:56:50.405Z,2.42
2023-05-13T15:59:16.904Z,2.30
2023-05-13T16:01:43.495Z,1.70
2023-05-13T16:04:10.039Z,2.70
2023-05-13T16:06:36.552Z,2.40
2023-05-13T16:09:04.058Z,2.95
2023-05-13T16:11:30.582Z,2.40
2023-05-13T16:13:57.066Z,2.10
2023-05-13T16:16:23.592Z,2.65
2023-05-13T16:18:50.509Z,2.33
2023-05-13T16:21:17.032Z,3.17
2023-05-13T16:23:43.481Z,3.38
2023-05-13T16:26:10.053Z,4.18
2023-05-13T16:28:36.496Z,3.85
2023-05-13T16:31:03.037Z,4.65
2023-05-13T16:33:30.221Z,4.22
2023-05-13T16:35:56.782Z,4.07
2023-05-13T16:38:23.236Z,4.32
2023-05-13T16:40:49.739Z,4.07
2023-05-13T16:43:16.205Z,4.70
2023-05-13T16:45:43.780Z,4.65
2023-05-13T16:48:10.404Z,4.70
2023-05-13T17:01:40.006Z,4.53
2023-05-13T17:04:06.544Z,5.43
2023-05-13T17:06:33.059Z,5.68
2023-05-13T17:08:59.592Z,6.22
2023-05-13T17:11:26.488Z,5.97
2023-05-13T17:13:52.939Z,6.25
2023-05-13T17:16:19.532Z,5.50
2023-05-13T17:18:46.067Z,5.90
2023-05-13T17:21:12.541Z,6.68
2023-05-13T17:23:39.293Z,5.72
2023-05-13T17:26:05.771Z,5.75
2023-05-13T17:28:33.854Z,5.72
2023-05-13T17:31:04.939Z,5.32
2023-05-13T17:33:31.436Z,6.05
2023-05-13T17:35:57.980Z,6.50
2023-05-13T17:38:24.808Z,6.20
2023-05-13T17:40:51.608Z,5.97
2023-05-13T17:43:18.278Z,7.03
2023-05-13T17:45:45.210Z,6.57
2023-05-13T17:48:11.934Z,6.70
2023-05-13T17:50:38.549Z,7.18
2023-05-13T17:53:05.062Z,6.60
2023-05-13T17:55:31.543Z,7.00
2023-05-13T17:57:58.991Z,9.65
2023-05-13T18:00:25.914Z,7.15
2023-05-13T18:02:52.526Z,7.35
2023-05-13T18:05:19.652Z,7.85
2023-05-13T18:07:46.325Z,7.22
2023-05-13T18:10:12.869Z,6.68
2023-05-13T18:12:39.410Z,7.55
2023-05-13T18:15:06.543Z,7.22
2023-05-13T18:17:33.038Z,7.05
2023-05-13T18:19:59.509Z,7.05
2023-05-13T18:22:26.191Z,6.50
2023-05-13T18:24:52.753Z,7.00
2023-05-13T18:27:19.237Z,6.82
2023-05-13T18:29:46.335Z,6.43
2023-05-13T18:32:12.847Z,6.78
2023-05-13T18:34:39.307Z,6.30
2023-05-13T18:37:06.492Z,6.93
2023-05-13T18:39:33.087Z,6.03
2023-05-13T18:41:59.659Z,6.18
2023-05-13T18:44:26.175Z,6.30
2023-05-13T18:46:52.677Z,6.53
2023-05-13T18:49:19.120Z,6.45
2023-05-13T18:51:45.600Z,6.00
2023-05-13T18:54:12.126Z,6.28
2023-05-13T18:56:38.589Z,6.30
2023-05-13T18:59:05.101Z,6.82
2023-05-13T19:01:31.682Z,7.07
2023-05-13T19:03:58.328Z,6.22
2023-05-13T19:06:24.949Z,7.18
2023-05-13T19:08:51.484Z,6.30
2023-05-13T19:11:17.945Z,7.00
2023-05-13T19:13:47.606Z,6.78
2023-05-13T19:16:15.155Z,6.63
2023-05-13T19:18:41.820Z,6.90
2023-05-13T19:21:08.513Z,6.22
2023-05-13T19:23:35.015Z,6.75
2023-05-13T19:26:01.509Z,6.60
2023-05-13T19:28:28.474Z,6.80
2023-05-13T19:30:54.961Z,6.50
2023-05-13T19:33:21.828Z,6.05
2023-05-13T19:35:48.368Z,6.43
2023-05-13T19:38:14.883Z,6.95
2023-05-13T19:40:41.428Z,6.07
2023-05-13T19:43:07.967Z,6.57
2023-05-13T19:45:34.511Z,6.03
2023-05-13T19:48:01.348Z,6.35
2023-05-13T19:50:27.923Z,6.18
2023-05-13T19:52:55.402Z,8.35
2023-05-13T19:55:21.888Z,7.50
2023-05-13T19:57:48.448Z,7.40
2023-05-13T20:00:15.224Z,6.95
2023-05-13T20:02:41.909Z,7.00
2023-05-13T20:05:08.859Z,6.53
2023-05-13T20:07:35.407Z,6.47
2023-05-13T20:10:02.184Z,6.68
2023-05-13T20:12:28.753Z,6.65
2023-05-13T20:15:01.810Z,7.38
2023-05-13T20:17:28.429Z,6.72
2023-05-13T20:19:56.629Z,6.95
2023-05-13T20:22:23.223Z,7.03
2023-05-13T20:24:50.268Z,9.52
2023-05-13T20:27:17.308Z,12.95
2023-05-13T20:29:47.371Z,13.38
2023-05-13T20:32:14.184Z,12.55
2023-05-13T20:34:41.531Z,10.40
2023-05-13T20:37:08.003Z,8.55
2023-05-13T20:39:34.534Z,8.73
2023-05-13T20:42:01.155Z,7.88
2023-05-13T20:44:27.680Z,7.63
2023-05-13T20:46:54.191Z,7.15
2023-05-13T20:49:20.999Z,7.68
2023-05-13T20:51:47.812Z,7.95
2023-05-13T20:54:14.697Z,8.57
2023-05-13T20:56:41.513Z,7.95
2023-05-13T20:59:08.119Z,9.38
2023-05-13T21:01:35.029Z,8.63
2023-05-13T21:04:06.437Z,8.13
2023-05-13T21:06:33.075Z,7.40
2023-05-13T21:08:59.638Z,7.55
2023-05-13T21:11:26.284Z,7.15
2023-05-13T21:13:52.783Z,7.13
2023-05-13T21:16:19.281Z,6.70
2023-05-13T21:18:45.921Z,7.43
2023-05-13T21:21:12.623Z,7.72
2023-05-13T21:23:40.095Z,7.25
2023-05-13T21:26:07.192Z,7.18
2023-05-13T21:28:33.672Z,6.95
2023-05-13T21:31:00.169Z,7.32
2023-05-13T21:33:27.354Z,6.68
2023-05-13T21:35:54.011Z,6.65
2023-05-13T21:38:20.583Z,7.43
2023-05-13T21:40:47.088Z,7.65
2023-05-13T21:43:13.572Z,7.40
2023-05-13T21:45:40.144Z,6.97
2023-05-13T21:48:06.886Z,7.13
2023-05-13T21:50:34.112Z,7.07
2023-05-13T21:53:00.595Z,7.32
2023-05-13T21:55:27.092Z,7.25
2023-05-13T21:57:53.975Z,7.20
2023-05-13T22:00:21.613Z,7.20
2023-05-13T22:02:49.095Z,7.22
2023-05-13T22:05:16.381Z,6.85
2023-05-13T22:07:42.849Z,7.65
2023-05-13T22:10:09.885Z,8.38
2023-05-13T22:12:36.714Z,7.75
2023-05-13T22:15:03.445Z,7.65
2023-05-13T22:17:30.073Z,7.75
2023-05-13T22:19:56.839Z,8.52
2023-05-13T22:22:23.327Z,8.38
2023-05-13T22:24:50.399Z,8.77
2023-05-13T22:27:16.931Z,8.13
2023-05-13T22:29:43.400Z,7.63
2023-05-13T22:32:10.164Z,8.07
2023-05-13T22:34:36.787Z,8.43
2023-05-13T22:37:03.611Z,7.43
2023-05-13T22:39:30.367Z,7.30
2023-05-13T22:41:57.116Z,8.65
2023-05-13T22:44:23.916Z,8.15
2023-05-13T22:46:52.123Z,8.25
2023-05-13T22:49:18.665Z,8.48
2023-05-13T22:51:45.223Z,8.73
2023-05-13T22:54:11.902Z,8.43
2023-05-13T22:56:38.383Z,8.45
2023-05-13T22:59:04.942Z,9.05
2023-05-13T23:01:31.684Z,8.55
2023-05-13T23:03:58.197Z,8.80
2023-05-13T23:06:26.188Z,8.80
2023-05-13T23:08:52.766Z,9.85
2023-05-13T23:11:19.289Z,8.10
2023-05-13T23:13:45.774Z,7.35
2023-05-13T23:16:12.306Z,16.65
2023-05-13T23:18:38.969Z,10.45
2023-05-13T23:21:05.702Z,10.77
2023-05-13T23:23:32.694Z,12.82
2023-05-13T23:25:59.199Z,10.60
2023-05-13T23:28:25.824Z,11.45
2023-05-13T23:30:53.973Z,11.63
2023-05-13T23:33:20.806Z,10.13
2023-05-13T23:35:52.899Z,9.43
2023-05-13T23:38:19.483Z,8.98
2023-05-13T23:40:46.244Z,8.98
2023-05-13T23:43:12.770Z,8.85
2023-05-13T23:45:39.285Z,8.63
2023-05-13T23:48:05.955Z,8.60
2023-05-13T23:50:32.478Z,8.20
2023-05-13T23:52:58.978Z,8.43
2023-05-13T23:55:25.453Z,9.98
2023-05-13T23:57:51.922Z,9.15
